Archival Weather

Southern Wisconsin Rgnl

Janesville, Wisconsin (KJVL)

Report from: Wednesday, December 6, 2023 9:45 AM CST
Current time: Sunday, February 25, 2024 3:26 PM CST

Current weather – Weather history – Daily summaries
Weather forecast

Present weatherMist
Temperature1.0°C (33.8°F)
Wind chill-3.1°C (26.4°F)
Dew point-4.0°C (24.8°F)
Winds 8 kts (4.1 m/s, 9.2 mph) West-Southwest (240°)
Visibility6 mi. (9.7 km)
Clouds Scattered clouds 2,000 ft. (610 m)
Ceiling: Overcast 25,000 ft. (7,620 m)
Altimeter30.28 in.Hg (1025 mB)
Relative humidity69 %
Density altitude-2,048 ft. (-624 m)
Flight conditions Visual Meteorological Conditions
Raw dataKJVL 061545Z 24008KT 6SM BR SCT020 OVC250 01/M04 A3028
An error has occurred. This application may no longer respond until reloaded. Reload 🗙